sensor_id;sensor_type;location;lat;lon;timestamp;P1;durP1;ratioP1;P2;durP2;ratioP2
21554;SDS011;10938;44.794;-0.676;2023-04-30T00:00:31;13.57;;;6.15;;
21554;SDS011;10938;44.794;-0.676;2023-04-30T00:02:57;9.27;;;6.30;;
21554;SDS011;10938;44.794;-0.676;2023-04-30T00:05:22;11.82;;;6.03;;
21554;SDS011;10938;44.794;-0.676;2023-04-30T00:07:47;10.37;;;5.97;;
21554;SDS011;10938;44.794;-0.676;2023-04-30T00:10:12;11.70;;;6.50;;
21554;SDS011;10938;44.794;-0.676;2023-04-30T00:12:38;13.63;;;6.43;;
21554;SDS011;10938;44.794;-0.676;2023-04-30T00:15:03;8.38;;;5.35;;
21554;SDS011;10938;44.794;-0.676;2023-04-30T00:17:29;10.07;;;5.10;;
21554;SDS011;10938;44.794;-0.676;2023-04-30T00:19:54;10.50;;;6.15;;
21554;SDS011;10938;44.794;-0.676;2023-04-30T00:22:20;9.93;;;6.05;;
21554;SDS011;10938;44.794;-0.676;2023-04-30T00:24:46;10.55;;;5.72;;
21554;SDS011;10938;44.794;-0.676;2023-04-30T00:27:11;9.95;;;6.63;;
21554;SDS011;10938;44.794;-0.676;2023-04-30T00:29:37;9.80;;;6.00;;
21554;SDS011;10938;44.794;-0.676;2023-04-30T00:32:02;12.15;;;6.50;;
21554;SDS011;10938;44.794;-0.676;2023-04-30T00:34:28;15.32;;;6.32;;
21554;SDS011;10938;44.794;-0.676;2023-04-30T00:36:53;9.68;;;5.82;;
21554;SDS011;10938;44.794;-0.676;2023-04-30T00:39:18;15.15;;;6.97;;
21554;SDS011;10938;44.794;-0.676;2023-04-30T00:41:44;9.87;;;6.47;;
21554;SDS011;10938;44.794;-0.676;2023-04-30T00:44:10;12.60;;;6.55;;
21554;SDS011;10938;44.794;-0.676;2023-04-30T00:46:35;11.47;;;6.40;;
21554;SDS011;10938;44.794;-0.676;2023-04-30T00:49:00;12.63;;;6.30;;
21554;SDS011;10938;44.794;-0.676;2023-04-30T00:51:28;14.18;;;6.80;;
21554;SDS011;10938;44.794;-0.676;2023-04-30T00:53:55;11.13;;;5.80;;
21554;SDS011;10938;44.794;-0.676;2023-04-30T00:56:20;11.18;;;5.85;;
21554;SDS011;10938;44.794;-0.676;2023-04-30T00:58:45;10.37;;;6.07;;
21554;SDS011;10938;44.794;-0.676;2023-04-30T01:04:16;10.65;;;6.75;;
21554;SDS011;10938;44.794;-0.676;2023-04-30T01:06:41;11.15;;;6.57;;
21554;SDS011;10938;44.794;-0.676;2023-04-30T01:09:07;11.07;;;5.95;;
21554;SDS011;10938;44.794;-0.676;2023-04-30T01:14:11;8.30;;;5.63;;
21554;SDS011;10938;44.794;-0.676;2023-04-30T01:16:42;14.10;;;6.53;;
21554;SDS011;10938;44.794;-0.676;2023-04-30T01:19:19;12.07;;;6.30;;
21554;SDS011;10938;44.794;-0.676;2023-04-30T01:21:52;10.80;;;6.40;;
21554;SDS011;10938;44.794;-0.676;2023-04-30T01:27:06;13.10;;;7.87;;
21554;SDS011;10938;44.794;-0.676;2023-04-30T01:29:32;13.40;;;8.52;;
21554;SDS011;10938;44.794;-0.676;2023-04-30T01:31:58;12.73;;;7.68;;
21554;SDS011;10938;44.794;-0.676;2023-04-30T01:34:24;15.40;;;8.50;;
21554;SDS011;10938;44.794;-0.676;2023-04-30T01:36:52;14.10;;;7.93;;
21554;SDS011;10938;44.794;-0.676;2023-04-30T01:42:11;9.80;;;7.20;;
21554;SDS011;10938;44.794;-0.676;2023-04-30T01:47:24;14.60;;;9.40;;
21554;SDS011;10938;44.794;-0.676;2023-04-30T01:52:18;16.02;;;8.40;;
21554;SDS011;10938;44.794;-0.676;2023-04-30T01:54:48;11.25;;;7.72;;
21554;SDS011;10938;44.794;-0.676;2023-04-30T01:57:27;11.55;;;7.53;;
21554;SDS011;10938;44.794;-0.676;2023-04-30T01:59:53;12.68;;;8.02;;
21554;SDS011;10938;44.794;-0.676;2023-04-30T02:02:18;13.40;;;7.97;;
21554;SDS011;10938;44.794;-0.676;2023-04-30T02:04:43;13.33;;;8.03;;
21554;SDS011;10938;44.794;-0.676;2023-04-30T02:07:09;16.55;;;9.70;;
21554;SDS011;10938;44.794;-0.676;2023-04-30T02:09:35;12.70;;;8.32;;
21554;SDS011;10938;44.794;-0.676;2023-04-30T02:12:00;12.90;;;7.57;;
21554;SDS011;10938;44.794;-0.676;2023-04-30T02:14:27;11.77;;;7.95;;
21554;SDS011;10938;44.794;-0.676;2023-04-30T02:16:52;11.63;;;8.43;;
21554;SDS011;10938;44.794;-0.676;2023-04-30T02:19:17;13.82;;;9.27;;
21554;SDS011;10938;44.794;-0.676;2023-04-30T02:21:43;12.53;;;8.53;;
21554;SDS011;10938;44.794;-0.676;2023-04-30T02:24:08;11.17;;;9.10;;
21554;SDS011;10938;44.794;-0.676;2023-04-30T02:26:33;11.47;;;7.83;;
21554;SDS011;10938;44.794;-0.676;2023-04-30T02:28:58;10.93;;;6.60;;
21554;SDS011;10938;44.794;-0.676;2023-04-30T02:31:24;12.03;;;8.17;;
21554;SDS011;10938;44.794;-0.676;2023-04-30T02:33:49;12.88;;;7.28;;
21554;SDS011;10938;44.794;-0.676;2023-04-30T02:36:14;15.13;;;9.00;;
21554;SDS011;10938;44.794;-0.676;2023-04-30T02:38:40;12.67;;;8.60;;
21554;SDS011;10938;44.794;-0.676;2023-04-30T02:41:05;13.10;;;7.80;;
21554;SDS011;10938;44.794;-0.676;2023-04-30T02:43:30;9.27;;;6.13;;
21554;SDS011;10938;44.794;-0.676;2023-04-30T02:45:55;14.23;;;7.82;;
21554;SDS011;10938;44.794;-0.676;2023-04-30T02:48:21;10.48;;;7.00;;
21554;SDS011;10938;44.794;-0.676;2023-04-30T02:50:53;13.45;;;8.38;;
21554;SDS011;10938;44.794;-0.676;2023-04-30T02:53:18;13.63;;;8.02;;
21554;SDS011;10938;44.794;-0.676;2023-04-30T02:55:44;10.50;;;9.00;;
21554;SDS011;10938;44.794;-0.676;2023-04-30T02:58:10;11.15;;;8.60;;
21554;SDS011;10938;44.794;-0.676;2023-04-30T03:00:35;10.33;;;8.80;;
21554;SDS011;10938;44.794;-0.676;2023-04-30T03:03:00;14.97;;;8.83;;
21554;SDS011;10938;44.794;-0.676;2023-04-30T03:05:28;13.30;;;9.10;;
21554;SDS011;10938;44.794;-0.676;2023-04-30T03:07:54;10.27;;;7.30;;
21554;SDS011;10938;44.794;-0.676;2023-04-30T03:10:20;12.75;;;8.77;;
21554;SDS011;10938;44.794;-0.676;2023-04-30T03:12:45;10.40;;;8.48;;
21554;SDS011;10938;44.794;-0.676;2023-04-30T03:15:10;10.17;;;7.57;;
21554;SDS011;10938;44.794;-0.676;2023-04-30T03:17:35;13.33;;;9.33;;
21554;SDS011;10938;44.794;-0.676;2023-04-30T03:20:01;12.13;;;8.93;;
21554;SDS011;10938;44.794;-0.676;2023-04-30T03:22:26;13.07;;;9.77;;
21554;SDS011;10938;44.794;-0.676;2023-04-30T03:24:51;9.52;;;7.40;;
21554;SDS011;10938;44.794;-0.676;2023-04-30T03:27:17;10.48;;;7.53;;
21554;SDS011;10938;44.794;-0.676;2023-04-30T03:29:42;10.30;;;7.57;;
21554;SDS011;10938;44.794;-0.676;2023-04-30T03:32:07;19.40;;;8.70;;
21554;SDS011;10938;44.794;-0.676;2023-04-30T03:34:33;9.90;;;7.32;;
21554;SDS011;10938;44.794;-0.676;2023-04-30T03:36:58;10.93;;;8.13;;
21554;SDS011;10938;44.794;-0.676;2023-04-30T03:39:25;10.02;;;8.02;;
21554;SDS011;10938;44.794;-0.676;2023-04-30T03:41:51;12.63;;;8.32;;
21554;SDS011;10938;44.794;-0.676;2023-04-30T03:44:16;11.23;;;8.30;;
21554;SDS011;10938;44.794;-0.676;2023-04-30T03:46:41;12.60;;;8.40;;
21554;SDS011;10938;44.794;-0.676;2023-04-30T03:49:09;10.25;;;8.07;;
21554;SDS011;10938;44.794;-0.676;2023-04-30T03:51:38;14.57;;;8.70;;
21554;SDS011;10938;44.794;-0.676;2023-04-30T03:54:05;10.40;;;7.95;;
21554;SDS011;10938;44.794;-0.676;2023-04-30T03:56:34;13.38;;;10.00;;
21554;SDS011;10938;44.794;-0.676;2023-04-30T03:59:00;11.45;;;8.45;;
21554;SDS011;10938;44.794;-0.676;2023-04-30T04:01:25;11.90;;;8.80;;
21554;SDS011;10938;44.794;-0.676;2023-04-30T04:03:50;12.13;;;8.30;;
21554;SDS011;10938;44.794;-0.676;2023-04-30T04:06:16;11.90;;;7.40;;
21554;SDS011;10938;44.794;-0.676;2023-04-30T04:08:41;16.20;;;10.03;;
21554;SDS011;10938;44.794;-0.676;2023-04-30T04:11:08;11.57;;;8.73;;
21554;SDS011;10938;44.794;-0.676;2023-04-30T04:13:33;9.95;;;7.72;;
21554;SDS011;10938;44.794;-0.676;2023-04-30T04:15:58;14.53;;;9.17;;
21554;SDS011;10938;44.794;-0.676;2023-04-30T04:18:24;13.77;;;9.35;;
21554;SDS011;10938;44.794;-0.676;2023-04-30T04:20:49;11.90;;;8.55;;
21554;SDS011;10938;44.794;-0.676;2023-04-30T04:23:14;13.30;;;8.97;;
21554;SDS011;10938;44.794;-0.676;2023-04-30T04:25:40;12.70;;;9.18;;
21554;SDS011;10938;44.794;-0.676;2023-04-30T04:28:05;10.27;;;7.90;;
21554;SDS011;10938;44.794;-0.676;2023-04-30T04:30:30;10.53;;;8.43;;
21554;SDS011;10938;44.794;-0.676;2023-04-30T04:32:56;12.50;;;8.85;;
21554;SDS011;10938;44.794;-0.676;2023-04-30T04:35:21;12.85;;;8.10;;
21554;SDS011;10938;44.794;-0.676;2023-04-30T04:37:47;11.80;;;8.38;;
21554;SDS011;10938;44.794;-0.676;2023-04-30T04:40:12;13.32;;;10.23;;
21554;SDS011;10938;44.794;-0.676;2023-04-30T04:42:37;13.20;;;8.95;;
21554;SDS011;10938;44.794;-0.676;2023-04-30T04:45:06;12.57;;;8.73;;
21554;SDS011;10938;44.794;-0.676;2023-04-30T04:47:32;13.75;;;8.93;;
21554;SDS011;10938;44.794;-0.676;2023-04-30T04:49:57;15.05;;;9.65;;
21554;SDS011;10938;44.794;-0.676;2023-04-30T04:52:22;12.90;;;9.63;;
21554;SDS011;10938;44.794;-0.676;2023-04-30T04:54:48;13.17;;;9.90;;
21554;SDS011;10938;44.794;-0.676;2023-04-30T04:57:13;12.23;;;8.53;;
21554;SDS011;10938;44.794;-0.676;2023-04-30T04:59:38;11.97;;;9.53;;
21554;SDS011;10938;44.794;-0.676;2023-04-30T05:02:03;13.77;;;9.70;;
21554;SDS011;10938;44.794;-0.676;2023-04-30T05:04:29;14.23;;;9.68;;
21554;SDS011;10938;44.794;-0.676;2023-04-30T05:06:54;15.53;;;10.30;;
21554;SDS011;10938;44.794;-0.676;2023-04-30T05:09:19;14.80;;;9.85;;
21554;SDS011;10938;44.794;-0.676;2023-04-30T05:11:45;10.93;;;8.75;;
21554;SDS011;10938;44.794;-0.676;2023-04-30T05:14:12;15.70;;;10.30;;
21554;SDS011;10938;44.794;-0.676;2023-04-30T05:16:38;14.47;;;9.10;;
21554;SDS011;10938;44.794;-0.676;2023-04-30T05:19:03;13.93;;;9.68;;
21554;SDS011;10938;44.794;-0.676;2023-04-30T05:21:28;10.67;;;8.23;;
21554;SDS011;10938;44.794;-0.676;2023-04-30T05:23:54;11.20;;;7.87;;
21554;SDS011;10938;44.794;-0.676;2023-04-30T05:26:19;14.52;;;10.40;;
21554;SDS011;10938;44.794;-0.676;2023-04-30T05:28:44;11.23;;;8.55;;
21554;SDS011;10938;44.794;-0.676;2023-04-30T05:31:10;11.25;;;8.55;;
21554;SDS011;10938;44.794;-0.676;2023-04-30T05:33:35;12.30;;;8.57;;
21554;SDS011;10938;44.794;-0.676;2023-04-30T05:36:01;12.02;;;8.05;;
21554;SDS011;10938;44.794;-0.676;2023-04-30T05:38:26;10.52;;;6.80;;
21554;SDS011;10938;44.794;-0.676;2023-04-30T05:40:52;9.77;;;8.02;;
21554;SDS011;10938;44.794;-0.676;2023-04-30T05:43:17;10.70;;;6.90;;
21554;SDS011;10938;44.794;-0.676;2023-04-30T05:45:42;10.77;;;7.07;;
21554;SDS011;10938;44.794;-0.676;2023-04-30T05:48:07;8.70;;;7.83;;
21554;SDS011;10938;44.794;-0.676;2023-04-30T05:50:33;10.13;;;7.63;;
21554;SDS011;10938;44.794;-0.676;2023-04-30T05:52:58;9.20;;;7.10;;
21554;SDS011;10938;44.794;-0.676;2023-04-30T05:55:23;12.07;;;8.67;;
21554;SDS011;10938;44.794;-0.676;2023-04-30T05:57:48;13.10;;;7.70;;
21554;SDS011;10938;44.794;-0.676;2023-04-30T06:00:14;12.17;;;8.37;;
21554;SDS011;10938;44.794;-0.676;2023-04-30T06:02:40;11.95;;;7.50;;
21554;SDS011;10938;44.794;-0.676;2023-04-30T06:05:06;12.43;;;7.60;;
21554;SDS011;10938;44.794;-0.676;2023-04-30T06:07:31;17.90;;;9.65;;
21554;SDS011;10938;44.794;-0.676;2023-04-30T06:09:57;9.37;;;7.40;;
21554;SDS011;10938;44.794;-0.676;2023-04-30T06:12:22;13.55;;;7.80;;
21554;SDS011;10938;44.794;-0.676;2023-04-30T06:14:48;10.98;;;7.78;;
21554;SDS011;10938;44.794;-0.676;2023-04-30T06:17:13;11.20;;;7.35;;
21554;SDS011;10938;44.794;-0.676;2023-04-30T06:19:39;13.57;;;8.10;;
21554;SDS011;10938;44.794;-0.676;2023-04-30T06:22:05;13.88;;;7.85;;
21554;SDS011;10938;44.794;-0.676;2023-04-30T06:24:30;12.97;;;7.53;;
21554;SDS011;10938;44.794;-0.676;2023-04-30T06:26:55;11.90;;;7.17;;
21554;SDS011;10938;44.794;-0.676;2023-04-30T06:29:21;12.10;;;7.70;;
21554;SDS011;10938;44.794;-0.676;2023-04-30T06:31:48;14.70;;;9.32;;
21554;SDS011;10938;44.794;-0.676;2023-04-30T06:34:13;15.15;;;8.65;;
21554;SDS011;10938;44.794;-0.676;2023-04-30T06:36:39;12.87;;;9.60;;
21554;SDS011;10938;44.794;-0.676;2023-04-30T06:39:04;12.13;;;9.33;;
21554;SDS011;10938;44.794;-0.676;2023-04-30T06:41:29;10.98;;;8.30;;
21554;SDS011;10938;44.794;-0.676;2023-04-30T06:43:54;13.88;;;9.40;;
21554;SDS011;10938;44.794;-0.676;2023-04-30T06:46:20;9.20;;;7.40;;
21554;SDS011;10938;44.794;-0.676;2023-04-30T06:48:45;10.33;;;8.33;;
21554;SDS011;10938;44.794;-0.676;2023-04-30T06:51:10;17.17;;;9.73;;
21554;SDS011;10938;44.794;-0.676;2023-04-30T06:53:35;8.40;;;7.57;;
21554;SDS011;10938;44.794;-0.676;2023-04-30T06:56:01;9.60;;;7.87;;
21554;SDS011;10938;44.794;-0.676;2023-04-30T06:58:26;11.43;;;9.63;;
21554;SDS011;10938;44.794;-0.676;2023-04-30T07:00:51;12.27;;;8.80;;
21554;SDS011;10938;44.794;-0.676;2023-04-30T07:03:18;11.18;;;7.82;;
21554;SDS011;10938;44.794;-0.676;2023-04-30T07:05:43;9.60;;;7.97;;
21554;SDS011;10938;44.794;-0.676;2023-04-30T07:08:08;10.55;;;8.40;;
21554;SDS011;10938;44.794;-0.676;2023-04-30T07:10:34;9.38;;;8.00;;
21554;SDS011;10938;44.794;-0.676;2023-04-30T07:12:59;10.05;;;7.88;;
21554;SDS011;10938;44.794;-0.676;2023-04-30T07:15:24;9.98;;;8.23;;
21554;SDS011;10938;44.794;-0.676;2023-04-30T07:17:50;10.37;;;8.00;;
21554;SDS011;10938;44.794;-0.676;2023-04-30T07:20:15;12.38;;;8.40;;
21554;SDS011;10938;44.794;-0.676;2023-04-30T07:22:41;11.82;;;8.00;;
21554;SDS011;10938;44.794;-0.676;2023-04-30T07:25:08;8.75;;;6.43;;
21554;SDS011;10938;44.794;-0.676;2023-04-30T07:27:34;9.85;;;6.85;;
21554;SDS011;10938;44.794;-0.676;2023-04-30T07:29:59;9.80;;;7.57;;
21554;SDS011;10938;44.794;-0.676;2023-04-30T07:32:24;14.18;;;8.10;;
21554;SDS011;10938;44.794;-0.676;2023-04-30T07:34:51;8.88;;;6.93;;
21554;SDS011;10938;44.794;-0.676;2023-04-30T07:37:17;9.95;;;7.25;;
21554;SDS011;10938;44.794;-0.676;2023-04-30T07:39:42;8.80;;;6.72;;
21554;SDS011;10938;44.794;-0.676;2023-04-30T07:42:08;7.77;;;6.03;;
21554;SDS011;10938;44.794;-0.676;2023-04-30T07:44:33;11.73;;;6.93;;
21554;SDS011;10938;44.794;-0.676;2023-04-30T07:46:58;7.17;;;5.47;;
21554;SDS011;10938;44.794;-0.676;2023-04-30T07:49:24;7.00;;;5.80;;
21554;SDS011;10938;44.794;-0.676;2023-04-30T07:51:50;9.50;;;6.50;;
21554;SDS011;10938;44.794;-0.676;2023-04-30T07:54:15;8.80;;;5.65;;
21554;SDS011;10938;44.794;-0.676;2023-04-30T07:56:41;6.20;;;4.90;;
21554;SDS011;10938;44.794;-0.676;2023-04-30T07:59:06;7.78;;;6.03;;
21554;SDS011;10938;44.794;-0.676;2023-04-30T08:01:32;6.03;;;5.10;;
21554;SDS011;10938;44.794;-0.676;2023-04-30T08:03:57;6.33;;;5.70;;
21554;SDS011;10938;44.794;-0.676;2023-04-30T08:06:22;11.70;;;4.30;;
21554;SDS011;10938;44.794;-0.676;2023-04-30T08:08:48;5.72;;;5.07;;
21554;SDS011;10938;44.794;-0.676;2023-04-30T08:11:13;7.40;;;4.72;;
21554;SDS011;10938;44.794;-0.676;2023-04-30T08:13:40;5.03;;;3.85;;
21554;SDS011;10938;44.794;-0.676;2023-04-30T08:16:06;6.53;;;5.03;;
21554;SDS011;10938;44.794;-0.676;2023-04-30T08:18:31;8.43;;;6.38;;
21554;SDS011;10938;44.794;-0.676;2023-04-30T08:20:56;8.63;;;5.90;;
21554;SDS011;10938;44.794;-0.676;2023-04-30T08:23:22;7.97;;;5.00;;
21554;SDS011;10938;44.794;-0.676;2023-04-30T08:25:47;5.50;;;4.57;;
21554;SDS011;10938;44.794;-0.676;2023-04-30T08:28:12;7.07;;;4.07;;
21554;SDS011;10938;44.794;-0.676;2023-04-30T08:30:38;4.43;;;4.03;;
21554;SDS011;10938;44.794;-0.676;2023-04-30T08:33:03;6.47;;;5.10;;
21554;SDS011;10938;44.794;-0.676;2023-04-30T08:35:28;6.50;;;4.90;;
21554;SDS011;10938;44.794;-0.676;2023-04-30T08:37:54;4.97;;;4.03;;
21554;SDS011;10938;44.794;-0.676;2023-04-30T08:40:22;5.35;;;4.80;;
21554;SDS011;10938;44.794;-0.676;2023-04-30T08:42:52;4.40;;;4.00;;
21554;SDS011;10938;44.794;-0.676;2023-04-30T08:45:19;5.00;;;4.18;;
21554;SDS011;10938;44.794;-0.676;2023-04-30T08:47:45;5.25;;;3.90;;
21554;SDS011;10938;44.794;-0.676;2023-04-30T08:50:11;3.70;;;3.40;;
21554;SDS011;10938;44.794;-0.676;2023-04-30T08:52:36;3.73;;;3.43;;
21554;SDS011;10938;44.794;-0.676;2023-04-30T08:55:05;4.90;;;4.30;;
21554;SDS011;10938;44.794;-0.676;2023-04-30T08:57:31;4.65;;;3.90;;
21554;SDS011;10938;44.794;-0.676;2023-04-30T08:59:56;3.23;;;3.03;;
21554;SDS011;10938;44.794;-0.676;2023-04-30T09:02:21;3.27;;;2.93;;
21554;SDS011;10938;44.794;-0.676;2023-04-30T09:04:47;4.43;;;3.17;;
21554;SDS011;10938;44.794;-0.676;2023-04-30T09:07:12;3.35;;;3.05;;
21554;SDS011;10938;44.794;-0.676;2023-04-30T09:09:38;3.70;;;3.40;;
21554;SDS011;10938;44.794;-0.676;2023-04-30T09:12:11;3.15;;;2.95;;
21554;SDS011;10938;44.794;-0.676;2023-04-30T09:17:05;3.22;;;2.83;;
21554;SDS011;10938;44.794;-0.676;2023-04-30T09:19:31;3.47;;;3.10;;
21554;SDS011;10938;44.794;-0.676;2023-04-30T09:21:56;5.10;;;2.80;;
21554;SDS011;10938;44.794;-0.676;2023-04-30T09:24:22;3.50;;;2.47;;
21554;SDS011;10938;44.794;-0.676;2023-04-30T09:26:48;5.18;;;2.70;;
21554;SDS011;10938;44.794;-0.676;2023-04-30T09:29:13;3.47;;;2.78;;
21554;SDS011;10938;44.794;-0.676;2023-04-30T09:31:41;2.80;;;2.20;;
21554;SDS011;10938;44.794;-0.676;2023-04-30T09:34:06;2.60;;;2.40;;
21554;SDS011;10938;44.794;-0.676;2023-04-30T09:36:32;3.83;;;2.63;;
21554;SDS011;10938;44.794;-0.676;2023-04-30T09:39:07;3.50;;;2.50;;
21554;SDS011;10938;44.794;-0.676;2023-04-30T09:41:33;3.28;;;1.80;;
21554;SDS011;10938;44.794;-0.676;2023-04-30T09:44:00;2.55;;;1.98;;
21554;SDS011;10938;44.794;-0.676;2023-04-30T09:46:29;4.15;;;2.33;;
21554;SDS011;10938;44.794;-0.676;2023-04-30T09:48:59;2.78;;;2.00;;
21554;SDS011;10938;44.794;-0.676;2023-04-30T09:51:24;1.88;;;1.73;;
21554;SDS011;10938;44.794;-0.676;2023-04-30T09:53:51;1.52;;;1.40;;
21554;SDS011;10938;44.794;-0.676;2023-04-30T09:56:19;1.90;;;1.33;;
21554;SDS011;10938;44.794;-0.676;2023-04-30T09:58:45;1.58;;;1.40;;
21554;SDS011;10938;44.794;-0.676;2023-04-30T10:01:13;2.72;;;1.73;;
21554;SDS011;10938;44.794;-0.676;2023-04-30T10:03:40;6.70;;;1.73;;
21554;SDS011;10938;44.794;-0.676;2023-04-30T10:06:06;2.75;;;1.95;;
21554;SDS011;10938;44.794;-0.676;2023-04-30T10:08:33;2.83;;;1.70;;
21554;SDS011;10938;44.794;-0.676;2023-04-30T10:11:03;2.40;;;1.58;;
21554;SDS011;10938;44.794;-0.676;2023-04-30T10:13:34;1.70;;;1.60;;
21554;SDS011;10938;44.794;-0.676;2023-04-30T10:16:03;1.70;;;1.48;;
21554;SDS011;10938;44.794;-0.676;2023-04-30T10:18:32;1.73;;;1.50;;
21554;SDS011;10938;44.794;-0.676;2023-04-30T10:20:58;1.58;;;1.48;;
21554;SDS011;10938;44.794;-0.676;2023-04-30T10:23:26;2.10;;;1.50;;
21554;SDS011;10938;44.794;-0.676;2023-04-30T10:25:53;1.70;;;1.60;;
21554;SDS011;10938;44.794;-0.676;2023-04-30T10:28:18;1.70;;;1.60;;
21554;SDS011;10938;44.794;-0.676;2023-04-30T10:30:44;1.80;;;1.70;;
21554;SDS011;10938;44.794;-0.676;2023-04-30T10:33:24;1.92;;;1.63;;
21554;SDS011;10938;44.794;-0.676;2023-04-30T10:35:57;1.65;;;1.45;;
21554;SDS011;10938;44.794;-0.676;2023-04-30T10:38:23;1.67;;;1.58;;
21554;SDS011;10938;44.794;-0.676;2023-04-30T10:40:53;1.85;;;1.33;;
21554;SDS011;10938;44.794;-0.676;2023-04-30T10:43:19;6.03;;;4.05;;
21554;SDS011;10938;44.794;-0.676;2023-04-30T10:45:46;2.22;;;1.58;;
21554;SDS011;10938;44.794;-0.676;2023-04-30T10:48:11;1.90;;;1.43;;
21554;SDS011;10938;44.794;-0.676;2023-04-30T10:50:39;1.80;;;1.35;;
21554;SDS011;10938;44.794;-0.676;2023-04-30T10:53:05;1.65;;;1.55;;
21554;SDS011;10938;44.794;-0.676;2023-04-30T10:55:31;3.15;;;1.95;;
21554;SDS011;10938;44.794;-0.676;2023-04-30T10:57:57;3.30;;;3.00;;
21554;SDS011;10938;44.794;-0.676;2023-04-30T11:00:25;1.73;;;1.63;;
21554;SDS011;10938;44.794;-0.676;2023-04-30T11:02:55;2.83;;;1.77;;
21554;SDS011;10938;44.794;-0.676;2023-04-30T11:05:20;2.22;;;1.98;;
21554;SDS011;10938;44.794;-0.676;2023-04-30T11:07:49;2.65;;;2.30;;
21554;SDS011;10938;44.794;-0.676;2023-04-30T11:10:15;2.55;;;2.03;;
21554;SDS011;10938;44.794;-0.676;2023-04-30T11:12:46;3.42;;;1.73;;
21554;SDS011;10938;44.794;-0.676;2023-04-30T11:15:12;2.67;;;1.60;;
21554;SDS011;10938;44.794;-0.676;2023-04-30T11:17:37;2.22;;;1.92;;
21554;SDS011;10938;44.794;-0.676;2023-04-30T11:20:03;1.65;;;1.55;;
21554;SDS011;10938;44.794;-0.676;2023-04-30T11:22:28;1.90;;;1.60;;
21554;SDS011;10938;44.794;-0.676;2023-04-30T11:25:01;1.83;;;1.63;;
21554;SDS011;10938;44.794;-0.676;2023-04-30T11:27:28;1.67;;;1.58;;
21554;SDS011;10938;44.794;-0.676;2023-04-30T11:29:54;3.25;;;1.70;;
21554;SDS011;10938;44.794;-0.676;2023-04-30T11:32:21;2.13;;;1.65;;
21554;SDS011;10938;44.794;-0.676;2023-04-30T11:34:47;1.90;;;1.75;;
21554;SDS011;10938;44.794;-0.676;2023-04-30T11:37:17;2.03;;;1.45;;
21554;SDS011;10938;44.794;-0.676;2023-04-30T11:39:43;3.13;;;1.90;;
21554;SDS011;10938;44.794;-0.676;2023-04-30T11:42:08;3.55;;;1.70;;
21554;SDS011;10938;44.794;-0.676;2023-04-30T11:44:34;3.03;;;1.52;;
21554;SDS011;10938;44.794;-0.676;2023-04-30T11:46:59;5.63;;;1.90;;
21554;SDS011;10938;44.794;-0.676;2023-04-30T11:49:25;2.28;;;1.52;;
21554;SDS011;10938;44.794;-0.676;2023-04-30T11:51:50;2.28;;;1.67;;
21554;SDS011;10938;44.794;-0.676;2023-04-30T11:54:17;2.25;;;1.80;;
21554;SDS011;10938;44.794;-0.676;2023-04-30T11:56:46;2.33;;;1.80;;
21554;SDS011;10938;44.794;-0.676;2023-04-30T11:59:12;1.63;;;1.52;;
21554;SDS011;10938;44.794;-0.676;2023-04-30T12:01:38;2.00;;;1.63;;
21554;SDS011;10938;44.794;-0.676;2023-04-30T12:04:04;2.30;;;1.70;;
21554;SDS011;10938;44.794;-0.676;2023-04-30T12:06:30;2.47;;;1.80;;
21554;SDS011;10938;44.794;-0.676;2023-04-30T12:08:56;3.70;;;2.90;;
21554;SDS011;10938;44.794;-0.676;2023-04-30T12:11:25;4.35;;;3.63;;
21554;SDS011;10938;44.794;-0.676;2023-04-30T12:13:54;2.38;;;2.05;;
21554;SDS011;10938;44.794;-0.676;2023-04-30T12:16:20;2.75;;;2.20;;
21554;SDS011;10938;44.794;-0.676;2023-04-30T12:18:45;2.30;;;2.10;;
21554;SDS011;10938;44.794;-0.676;2023-04-30T12:21:11;1.50;;;1.40;;
21554;SDS011;10938;44.794;-0.676;2023-04-30T12:23:36;1.88;;;1.77;;
21554;SDS011;10938;44.794;-0.676;2023-04-30T12:26:02;4.57;;;1.83;;
21554;SDS011;10938;44.794;-0.676;2023-04-30T12:28:27;2.10;;;1.57;;
21554;SDS011;10938;44.794;-0.676;2023-04-30T12:30:53;1.50;;;1.40;;
21554;SDS011;10938;44.794;-0.676;2023-04-30T12:33:18;3.20;;;1.75;;
21554;SDS011;10938;44.794;-0.676;2023-04-30T12:35:43;2.63;;;1.73;;
21554;SDS011;10938;44.794;-0.676;2023-04-30T12:38:09;2.17;;;1.67;;
21554;SDS011;10938;44.794;-0.676;2023-04-30T12:40:34;2.17;;;1.80;;
21554;SDS011;10938;44.794;-0.676;2023-04-30T12:43:07;1.63;;;1.50;;
21554;SDS011;10938;44.794;-0.676;2023-04-30T12:48:12;2.95;;;1.52;;
21554;SDS011;10938;44.794;-0.676;2023-04-30T12:50:38;2.97;;;1.70;;
21554;SDS011;10938;44.794;-0.676;2023-04-30T12:53:03;1.80;;;1.70;;
21554;SDS011;10938;44.794;-0.676;2023-04-30T12:55:29;2.03;;;1.65;;
21554;SDS011;10938;44.794;-0.676;2023-04-30T12:58:01;1.52;;;1.40;;
21554;SDS011;10938;44.794;-0.676;2023-04-30T13:00:27;1.88;;;1.63;;
21554;SDS011;10938;44.794;-0.676;2023-04-30T13:02:52;1.88;;;1.60;;
21554;SDS011;10938;44.794;-0.676;2023-04-30T13:05:17;2.03;;;1.53;;
21554;SDS011;10938;44.794;-0.676;2023-04-30T13:07:43;2.55;;;1.77;;
21554;SDS011;10938;44.794;-0.676;2023-04-30T13:10:08;2.17;;;1.60;;
21554;SDS011;10938;44.794;-0.676;2023-04-30T13:12:33;1.70;;;1.60;;
21554;SDS011;10938;44.794;-0.676;2023-04-30T13:14:59;1.80;;;1.53;;
21554;SDS011;10938;44.794;-0.676;2023-04-30T13:17:24;1.63;;;1.53;;
21554;SDS011;10938;44.794;-0.676;2023-04-30T13:19:50;1.85;;;1.35;;
21554;SDS011;10938;44.794;-0.676;2023-04-30T13:22:15;2.97;;;1.50;;
21554;SDS011;10938;44.794;-0.676;2023-04-30T13:24:40;2.60;;;1.80;;
21554;SDS011;10938;44.794;-0.676;2023-04-30T13:27:06;2.30;;;1.80;;
21554;SDS011;10938;44.794;-0.676;2023-04-30T13:29:31;1.60;;;1.50;;
21554;SDS011;10938;44.794;-0.676;2023-04-30T13:31:56;2.10;;;1.90;;
21554;SDS011;10938;44.794;-0.676;2023-04-30T13:34:22;1.85;;;1.60;;
21554;SDS011;10938;44.794;-0.676;2023-04-30T13:36:47;1.40;;;1.27;;
21554;SDS011;10938;44.794;-0.676;2023-04-30T13:39:12;5.43;;;1.80;;
21554;SDS011;10938;44.794;-0.676;2023-04-30T13:41:37;1.60;;;1.50;;
21554;SDS011;10938;44.794;-0.676;2023-04-30T13:44:03;1.73;;;1.42;;
21554;SDS011;10938;44.794;-0.676;2023-04-30T13:46:28;2.08;;;1.80;;
21554;SDS011;10938;44.794;-0.676;2023-04-30T13:48:54;2.63;;;2.00;;
21554;SDS011;10938;44.794;-0.676;2023-04-30T13:51:20;1.60;;;1.50;;
21554;SDS011;10938;44.794;-0.676;2023-04-30T13:53:45;2.17;;;1.67;;
21554;SDS011;10938;44.794;-0.676;2023-04-30T13:56:10;2.07;;;1.70;;
21554;SDS011;10938;44.794;-0.676;2023-04-30T13:58:36;1.70;;;1.60;;
21554;SDS011;10938;44.794;-0.676;2023-04-30T14:01:02;3.08;;;2.08;;
21554;SDS011;10938;44.794;-0.676;2023-04-30T14:03:27;15.25;;;3.13;;
21554;SDS011;10938;44.794;-0.676;2023-04-30T14:05:53;6.67;;;2.97;;
21554;SDS011;10938;44.794;-0.676;2023-04-30T14:08:18;7.97;;;2.83;;
21554;SDS011;10938;44.794;-0.676;2023-04-30T14:10:43;4.70;;;2.77;;
21554;SDS011;10938;44.794;-0.676;2023-04-30T14:13:09;5.80;;;2.67;;
21554;SDS011;10938;44.794;-0.676;2023-04-30T14:15:34;3.03;;;2.40;;
21554;SDS011;10938;44.794;-0.676;2023-04-30T14:18:01;5.22;;;2.40;;
21554;SDS011;10938;44.794;-0.676;2023-04-30T14:20:26;2.40;;;2.20;;
21554;SDS011;10938;44.794;-0.676;2023-04-30T14:22:52;2.72;;;2.10;;
21554;SDS011;10938;44.794;-0.676;2023-04-30T14:25:17;2.83;;;2.22;;
21554;SDS011;10938;44.794;-0.676;2023-04-30T14:27:42;2.00;;;1.80;;
21554;SDS011;10938;44.794;-0.676;2023-04-30T14:30:07;3.83;;;2.20;;
21554;SDS011;10938;44.794;-0.676;2023-04-30T14:32:34;4.38;;;2.10;;
21554;SDS011;10938;44.794;-0.676;2023-04-30T14:34:59;2.37;;;2.17;;
21554;SDS011;10938;44.794;-0.676;2023-04-30T14:37:24;4.82;;;2.35;;
21554;SDS011;10938;44.794;-0.676;2023-04-30T14:39:50;4.00;;;2.40;;
21554;SDS011;10938;44.794;-0.676;2023-04-30T14:42:15;5.47;;;2.15;;